Time;durP1;ratioP1;P1;durP2;ratioP2;P2;SDS_P1;SDS_P2;PMS_P1;PMS_P2;Temp;Humidity;BMP_temperature;BMP_pressure;BME280_temperature;BME280_humidity;BME280_pressure;Samples;Min_cycle;Max_cycle;Signal;HPM_P1;HPM_P2
2023/04/25 00:01:26;;;;;;;11.43;3.90;;;;;;;;;;5043358;28;20088;-58
2023/04/25 00:03:53;;;;;;;12.05;3.85;;;;;;;;;;5056540;28;20115;-57
2023/04/25 00:06:19;;;;;;;15.68;3.55;;;;;;;;;;5055020;28;20504;-58
2023/04/25 00:08:46;;;;;;;12.50;3.78;;;;;;;;;;5056629;28;20550;-58
2023/04/25 00:11:12;;;;;;;23.25;3.65;;;;;;;;;;5081364;28;20056;-56
2023/04/25 00:13:41;;;;;;;18.08;4.40;;;;;;;;;;5084353;28;20057;-58
2023/04/25 00:16:07;;;;;;;16.90;3.78;;;;;;;;;;5085059;28;20185;-58
2023/04/25 00:18:34;;;;;;;12.60;3.40;;;;;;;;;;5060604;28;20529;-57
2023/04/25 00:21:00;;;;;;;13.57;3.45;;;;;;;;;;5056035;28;20056;-58
2023/04/25 00:23:27;;;;;;;12.40;3.38;;;;;;;;;;5049790;28;20060;-58
2023/04/25 00:25:54;;;;;;;20.60;4.18;;;;;;;;;;5051537;28;20136;-58
2023/04/25 00:28:20;;;;;;;13.50;3.20;;;;;;;;;;5062542;28;20060;-58
2023/04/25 00:30:47;;;;;;;20.95;4.80;;;;;;;;;;5064009;28;20533;-58
2023/04/25 00:33:13;;;;;;;12.80;3.40;;;;;;;;;;5064761;28;20080;-57
2023/04/25 00:35:40;;;;;;;11.32;3.55;;;;;;;;;;5062179;28;20049;-57
2023/04/25 00:38:06;;;;;;;17.00;3.58;;;;;;;;;;5048819;28;20088;-57
2023/04/25 00:40:32;;;;;;;13.65;3.50;;;;;;;;;;5046099;28;20060;-58
2023/04/25 00:43:00;;;;;;;8.40;3.60;;;;;;;;;;5056209;28;20080;-59
2023/04/25 00:45:28;;;;;;;15.30;3.72;;;;;;;;;;5062598;28;20508;-55
2023/04/25 00:47:54;;;;;;;13.43;4.10;;;;;;;;;;5059504;28;20059;-57
2023/04/25 00:50:21;;;;;;;26.42;5.10;;;;;;;;;;5049017;28;20072;-58
2023/04/25 00:52:47;;;;;;;11.10;3.30;;;;;;;;;;5052711;28;20140;-57
2023/04/25 00:55:15;;;;;;;21.63;4.15;;;;;;;;;;5050757;28;20056;-57
2023/04/25 00:57:42;;;;;;;9.95;2.72;;;;;;;;;;5063248;28;20049;-58
2023/04/25 01:00:13;;;;;;;15.68;3.92;;;;;;;;;;5061724;28;20061;-57
2023/04/25 01:02:39;;;;;;;8.57;3.10;;;;;;;;;;5062704;28;20064;-57
2023/04/25 01:05:06;;;;;;;13.52;3.78;;;;;;;;;;5053350;28;20400;-59
2023/04/25 01:07:33;;;;;;;14.63;3.47;;;;;;;;;;5043525;28;20080;-57
2023/04/25 01:09:59;;;;;;;14.20;3.90;;;;;;;;;;5045896;28;20989;-55
2023/04/25 01:12:26;;;;;;;11.25;3.58;;;;;;;;;;5064477;28;20099;-58
2023/04/25 01:14:53;;;;;;;11.88;3.35;;;;;;;;;;5062006;28;20135;-56
2023/04/25 01:17:19;;;;;;;13.38;3.15;;;;;;;;;;5063462;28;20065;-58
2023/04/25 01:19:48;;;;;;;12.95;3.85;;;;;;;;;;5045770;28;20516;-56
2023/04/25 01:22:14;;;;;;;16.70;2.92;;;;;;;;;;5042714;28;20055;-58
2023/04/25 01:24:41;;;;;;;12.68;3.92;;;;;;;;;;5042310;28;20092;-56
2023/04/25 01:27:08;;;;;;;14.27;2.97;;;;;;;;;;5043028;28;20530;-58
2023/04/25 01:29:34;;;;;;;12.20;3.10;;;;;;;;;;5043475;28;20076;-57
2023/04/25 01:32:01;;;;;;;11.75;3.65;;;;;;;;;;5043402;28;20206;-58
2023/04/25 01:34:27;;;;;;;12.32;3.53;;;;;;;;;;5049291;28;20088;-58
2023/04/25 01:36:55;;;;;;;13.07;2.58;;;;;;;;;;5062647;28;20549;-56
2023/04/25 01:39:21;;;;;;;20.75;4.05;;;;;;;;;;5043951;28;20054;-59
2023/04/25 01:41:48;;;;;;;10.10;3.83;;;;;;;;;;5043769;28;20390;-58
2023/04/25 01:44:14;;;;;;;16.35;3.30;;;;;;;;;;5049181;28;20053;-59
2023/04/25 01:46:41;;;;;;;14.25;3.78;;;;;;;;;;5060144;28;20082;-57
2023/04/25 01:49:07;;;;;;;11.13;3.50;;;;;;;;;;5067409;28;20405;-58
2023/04/25 01:51:34;;;;;;;22.75;3.65;;;;;;;;;;5052182;28;20052;-58
2023/04/25 01:54:00;;;;;;;11.48;2.90;;;;;;;;;;5049507;28;20435;-57
2023/04/25 01:56:30;;;;;;;11.00;3.20;;;;;;;;;;5057723;28;20072;-57
2023/04/25 01:58:56;;;;;;;9.60;3.15;;;;;;;;;;5055101;28;20217;-58
2023/04/25 02:01:23;;;;;;;13.90;3.25;;;;;;;;;;5060943;28;20052;-57
2023/04/25 02:03:49;;;;;;;11.68;4.03;;;;;;;;;;5051543;28;20096;-58
2023/04/25 02:06:16;;;;;;;12.23;3.30;;;;;;;;;;5053366;28;20048;-55
2023/04/25 02:08:42;;;;;;;15.90;3.55;;;;;;;;;;5042802;28;20070;-57
2023/04/25 02:11:09;;;;;;;13.32;3.20;;;;;;;;;;5058464;28;20142;-57
2023/04/25 02:13:35;;;;;;;8.63;2.83;;;;;;;;;;5051814;28;20614;-58
2023/04/25 02:16:01;;;;;;;9.63;3.95;;;;;;;;;;5050865;28;20459;-59
2023/04/25 02:18:28;;;;;;;11.52;2.97;;;;;;;;;;5051462;28;20064;-58
2023/04/25 02:20:55;;;;;;;16.65;4.63;;;;;;;;;;5042346;28;20084;-59
2023/04/25 02:23:21;;;;;;;12.13;3.58;;;;;;;;;;5047946;28;20064;-58
2023/04/25 02:25:48;;;;;;;8.10;2.78;;;;;;;;;;5042111;28;20500;-55
2023/04/25 02:28:14;;;;;;;12.40;3.22;;;;;;;;;;5054633;28;20077;-57
2023/04/25 02:30:41;;;;;;;13.88;4.45;;;;;;;;;;5051665;28;20145;-58
2023/04/25 02:33:07;;;;;;;16.92;3.72;;;;;;;;;;5058454;28;20156;-58
2023/04/25 02:35:33;;;;;;;16.70;4.13;;;;;;;;;;5042351;28;20065;-58
2023/04/25 02:38:00;;;;;;;12.40;3.60;;;;;;;;;;5042064;28;20640;-57
2023/04/25 02:40:26;;;;;;;14.13;3.13;;;;;;;;;;5042749;28;20064;-58
2023/04/25 02:42:53;;;;;;;9.35;3.15;;;;;;;;;;5058470;28;20072;-58
2023/04/25 02:45:19;;;;;;;14.65;3.65;;;;;;;;;;5047786;28;20061;-57
2023/04/25 02:47:46;;;;;;;13.38;3.20;;;;;;;;;;5055564;28;20057;-60
2023/04/25 02:50:12;;;;;;;16.10;2.95;;;;;;;;;;5058760;28;20063;-58
2023/04/25 02:52:38;;;;;;;15.93;3.58;;;;;;;;;;5064824;28;20076;-58
2023/04/25 02:55:05;;;;;;;9.90;4.00;;;;;;;;;;5053683;28;20057;-59
2023/04/25 02:57:31;;;;;;;14.75;3.35;;;;;;;;;;5060524;28;20140;-58
2023/04/25 02:59:58;;;;;;;14.50;3.88;;;;;;;;;;5057341;28;20057;-57
2023/04/25 03:02:25;;;;;;;17.60;3.42;;;;;;;;;;5045817;28;20578;-57
2023/04/25 03:04:51;;;;;;;11.23;3.13;;;;;;;;;;5047807;28;20132;-58
2023/04/25 03:07:17;;;;;;;12.15;3.40;;;;;;;;;;5065153;28;20053;-57
2023/04/25 03:09:44;;;;;;;13.70;3.75;;;;;;;;;;5063025;28;20053;-58
2023/04/25 03:12:10;;;;;;;12.35;3.15;;;;;;;;;;5064031;28;20482;-58
2023/04/25 03:14:37;;;;;;;22.23;4.40;;;;;;;;;;5054388;28;20467;-58
2023/04/25 03:17:03;;;;;;;14.18;3.72;;;;;;;;;;5052364;28;20053;-58
2023/04/25 03:19:30;;;;;;;10.27;3.63;;;;;;;;;;5050172;28;20059;-57
2023/04/25 03:21:56;;;;;;;17.08;3.75;;;;;;;;;;5048161;28;20053;-58
2023/04/25 03:24:23;;;;;;;19.17;3.78;;;;;;;;;;5065414;28;20053;-56
2023/04/25 03:26:49;;;;;;;14.65;4.43;;;;;;;;;;5053899;28;20140;-57
2023/04/25 03:29:15;;;;;;;15.70;4.03;;;;;;;;;;5063151;28;20423;-57
2023/04/25 03:31:42;;;;;;;18.60;5.20;;;;;;;;;;5057375;28;20069;-58
2023/04/25 03:34:08;;;;;;;13.85;4.10;;;;;;;;;;5061589;28;20536;-56
2023/04/25 03:36:34;;;;;;;11.80;3.50;;;;;;;;;;5069939;28;20486;-55
2023/04/25 03:39:01;;;;;;;9.98;3.65;;;;;;;;;;5065034;28;20053;-58
2023/04/25 03:41:28;;;;;;;10.82;3.55;;;;;;;;;;5065508;28;20554;-58
2023/04/25 03:43:54;;;;;;;20.48;4.65;;;;;;;;;;5062607;28;20084;-57
2023/04/25 03:46:21;;;;;;;7.78;3.83;;;;;;;;;;5065134;28;20070;-58
2023/04/25 03:48:47;;;;;;;15.23;3.90;;;;;;;;;;5070306;28;20092;-57
2023/04/25 03:51:13;;;;;;;15.15;3.92;;;;;;;;;;5064334;28;20064;-56
2023/04/25 03:53:39;;;;;;;12.38;3.08;;;;;;;;;;5054520;28;20056;-58
2023/04/25 03:56:06;;;;;;;11.45;2.97;;;;;;;;;;5049347;28;20049;-59
2023/04/25 03:58:32;;;;;;;9.50;2.60;;;;;;;;;;5060092;28;20079;-57
2023/04/25 04:00:59;;;;;;;8.90;3.70;;;;;;;;;;5070895;28;20053;-57
2023/04/25 04:03:25;;;;;;;9.52;2.88;;;;;;;;;;5045195;28;20569;-57
2023/04/25 04:05:52;;;;;;;7.75;3.13;;;;;;;;;;5048814;28;20057;-58
2023/04/25 04:08:19;;;;;;;12.48;3.15;;;;;;;;;;5066961;28;20052;-58
2023/04/25 04:10:45;;;;;;;10.38;2.80;;;;;;;;;;5064016;28;20389;-56
2023/04/25 04:13:12;;;;;;;11.48;2.83;;;;;;;;;;5076461;28;20480;-56
2023/04/25 04:15:38;;;;;;;9.32;2.47;;;;;;;;;;5052312;28;21008;-59
2023/04/25 04:18:05;;;;;;;12.82;2.20;;;;;;;;;;5054128;28;20108;-57
2023/04/25 04:20:32;;;;;;;9.30;1.90;;;;;;;;;;5060968;28;20136;-58
2023/04/25 04:22:58;;;;;;;7.03;2.35;;;;;;;;;;5057780;28;20287;-58
2023/04/25 04:25:26;;;;;;;7.40;1.73;;;;;;;;;;5059277;28;21842;-58
2023/04/25 04:27:54;;;;;;;6.43;1.70;;;;;;;;;;5076126;28;20045;-56
2023/04/25 04:30:23;;;;;;;8.38;2.00;;;;;;;;;;5052767;28;20077;-58
2023/04/25 04:32:50;;;;;;;5.47;1.70;;;;;;;;;;5058006;28;20665;-58
2023/04/25 04:35:17;;;;;;;12.30;2.28;;;;;;;;;;5073686;28;20053;-56
2023/04/25 04:37:45;;;;;;;6.40;1.70;;;;;;;;;;5074913;28;20053;-58
2023/04/25 04:40:12;;;;;;;10.57;2.72;;;;;;;;;;5062026;28;20529;-57
2023/04/25 04:42:38;;;;;;;5.15;1.85;;;;;;;;;;5054302;28;20115;-58
2023/04/25 04:45:05;;;;;;;7.35;1.50;;;;;;;;;;5060921;28;20053;-58
2023/04/25 04:47:32;;;;;;;4.80;1.55;;;;;;;;;;5062088;28;20517;-58
2023/04/25 04:49:59;;;;;;;4.30;1.85;;;;;;;;;;5059452;28;20490;-53
2023/04/25 04:52:25;;;;;;;8.60;2.47;;;;;;;;;;5045748;28;20136;-59
2023/04/25 04:54:51;;;;;;;9.52;1.42;;;;;;;;;;5059675;28;20053;-57
2023/04/25 04:57:18;;;;;;;12.75;3.05;;;;;;;;;;5052710;28;20059;-58
2023/04/25 04:59:44;;;;;;;7.55;1.63;;;;;;;;;;5048720;28;20507;-58
2023/04/25 05:02:10;;;;;;;9.60;2.38;;;;;;;;;;5051062;28;20160;-57
2023/04/25 05:04:37;;;;;;;9.82;1.98;;;;;;;;;;5062437;28;21043;-58
2023/04/25 05:07:03;;;;;;;9.40;2.78;;;;;;;;;;5042844;28;20050;-55
2023/04/25 05:09:30;;;;;;;6.60;1.73;;;;;;;;;;5070968;28;20053;-57
2023/04/25 05:11:56;;;;;;;5.80;1.70;;;;;;;;;;5059448;28;20049;-58
2023/04/25 05:14:23;;;;;;;5.53;2.05;;;;;;;;;;5067382;28;20068;-59
2023/04/25 05:16:49;;;;;;;8.02;2.10;;;;;;;;;;5058349;28;20504;-58
2023/04/25 05:19:16;;;;;;;7.18;1.65;;;;;;;;;;5043527;28;20049;-58
2023/04/25 05:21:43;;;;;;;11.95;2.45;;;;;;;;;;5061518;28;20210;-57
2023/04/25 05:24:09;;;;;;;5.28;1.83;;;;;;;;;;5055675;28;20578;-57
2023/04/25 05:26:35;;;;;;;3.15;1.58;;;;;;;;;;5052285;28;20726;-57
2023/04/25 05:29:02;;;;;;;5.97;1.55;;;;;;;;;;5060201;28;20059;-58
2023/04/25 05:31:29;;;;;;;9.90;2.28;;;;;;;;;;5044569;28;20057;-57
2023/04/25 05:33:55;;;;;;;8.38;2.15;;;;;;;;;;5061142;28;20148;-58
2023/04/25 05:36:22;;;;;;;10.63;1.75;;;;;;;;;;5055752;28;20267;-58
2023/04/25 05:38:48;;;;;;;5.97;1.63;;;;;;;;;;5050326;28;20104;-58
2023/04/25 05:41:14;;;;;;;5.18;1.52;;;;;;;;;;5068555;28;20153;-58
2023/04/25 05:43:45;;;;;;;9.93;2.03;;;;;;;;;;5076146;28;20059;-59
2023/04/25 05:46:11;;;;;;;6.10;1.80;;;;;;;;;;5072123;28;20530;-57
2023/04/25 05:48:38;;;;;;;8.57;1.83;;;;;;;;;;5057103;28;20060;-58
2023/04/25 05:51:04;;;;;;;6.03;1.85;;;;;;;;;;5058310;28;20077;-58
2023/04/25 05:53:31;;;;;;;6.30;2.08;;;;;;;;;;5063979;28;20056;-59
2023/04/25 05:55:58;;;;;;;8.52;3.15;;;;;;;;;;5069745;28;20055;-58
2023/04/25 05:58:24;;;;;;;5.65;1.65;;;;;;;;;;5055810;28;20439;-59
2023/04/25 06:00:51;;;;;;;7.20;1.73;;;;;;;;;;5057578;28;20069;-58
2023/04/25 06:03:17;;;;;;;6.80;1.45;;;;;;;;;;5053253;28;20071;-58
2023/04/25 06:05:46;;;;;;;7.38;2.65;;;;;;;;;;5057334;28;20049;-57
2023/04/25 06:08:12;;;;;;;5.38;1.70;;;;;;;;;;5042477;28;20131;-58
2023/04/25 06:10:39;;;;;;;6.57;2.17;;;;;;;;;;5046158;28;20052;-58
2023/04/25 06:13:05;;;;;;;4.97;1.77;;;;;;;;;;5068511;28;20099;-58
2023/04/25 06:15:34;;;;;;;5.47;2.13;;;;;;;;;;5053292;28;20053;-57
2023/04/25 06:18:01;;;;;;;8.98;1.83;;;;;;;;;;5059124;28;20045;-57
2023/04/25 06:20:27;;;;;;;3.92;1.40;;;;;;;;;;5052057;28;20143;-58
2023/04/25 06:22:54;;;;;;;12.25;1.65;;;;;;;;;;5062225;28;20534;-57
2023/04/25 06:25:20;;;;;;;8.95;1.90;;;;;;;;;;5058449;28;20547;-57
2023/04/25 06:27:47;;;;;;;7.18;1.80;;;;;;;;;;5064638;28;20081;-58
2023/04/25 06:30:13;;;;;;;6.97;2.00;;;;;;;;;;5059653;28;20284;-57
2023/04/25 06:32:40;;;;;;;7.30;1.75;;;;;;;;;;5060444;28;20050;-58
2023/04/25 06:35:06;;;;;;;7.93;1.92;;;;;;;;;;5053754;28;20555;-58
2023/04/25 06:37:32;;;;;;;8.15;2.33;;;;;;;;;;5061593;28;20622;-57
2023/04/25 06:39:59;;;;;;;6.05;1.85;;;;;;;;;;5060712;28;20084;-54
2023/04/25 06:42:25;;;;;;;4.93;1.60;;;;;;;;;;5058118;28;20526;-58
2023/04/25 06:44:52;;;;;;;8.95;2.17;;;;;;;;;;5041696;28;20054;-57
2023/04/25 06:47:18;;;;;;;8.48;1.73;;;;;;;;;;5060115;28;20068;-58
2023/04/25 06:49:45;;;;;;;8.07;1.98;;;;;;;;;;5062282;28;20056;-56
2023/04/25 06:52:11;;;;;;;7.20;1.75;;;;;;;;;;5061838;28;20050;-58
2023/04/25 06:54:37;;;;;;;7.60;1.80;;;;;;;;;;5059404;28;20063;-57
2023/04/25 06:57:04;;;;;;;9.50;2.03;;;;;;;;;;5066164;28;20064;-58
2023/04/25 06:59:30;;;;;;;10.32;2.65;;;;;;;;;;5049948;28;20049;-59
2023/04/25 07:01:57;;;;;;;2.53;1.60;;;;;;;;;;5068089;28;20052;-58
2023/04/25 07:04:23;;;;;;;4.90;1.60;;;;;;;;;;5076943;28;20044;-59
2023/04/25 07:06:50;;;;;;;5.25;1.60;;;;;;;;;;5079691;28;20060;-59
2023/04/25 07:09:16;;;;;;;4.50;1.75;;;;;;;;;;5060682;28;20645;-59
2023/04/25 07:11:43;;;;;;;8.63;2.10;;;;;;;;;;5052739;28;20057;-59
2023/04/25 07:14:09;;;;;;;21.05;2.05;;;;;;;;;;5065868;28;20076;-59
2023/04/25 07:16:35;;;;;;;8.02;1.83;;;;;;;;;;5080992;28;20048;-57
2023/04/25 07:19:02;;;;;;;9.68;2.35;;;;;;;;;;5082695;28;20056;-56
2023/04/25 07:21:28;;;;;;;7.35;1.60;;;;;;;;;;5061564;28;20053;-57
2023/04/25 07:23:55;;;;;;;7.35;1.63;;;;;;;;;;5062644;28;20057;-59
2023/04/25 07:26:22;;;;;;;6.25;1.88;;;;;;;;;;5061886;28;20518;-57
2023/04/25 07:28:50;;;;;;;6.78;1.63;;;;;;;;;;5077291;28;20488;-59
2023/04/25 07:31:18;;;;;;;10.48;2.38;;;;;;;;;;5067166;28;20305;-59
2023/04/25 07:33:47;;;;;;;3.70;1.48;;;;;;;;;;5079121;28;20056;-59
2023/04/25 07:36:15;;;;;;;8.18;2.00;;;;;;;;;;5085162;28;20063;-59
2023/04/25 07:38:41;;;;;;;8.65;1.50;;;;;;;;;;5085202;28;20064;-58
2023/04/25 07:41:08;;;;;;;10.30;2.10;;;;;;;;;;5066531;28;20053;-56
2023/04/25 07:43:34;;;;;;;6.28;1.85;;;;;;;;;;5084404;28;20052;-57
2023/04/25 07:46:00;;;;;;;4.90;1.40;;;;;;;;;;5063192;28;20053;-59
2023/04/25 07:48:27;;;;;;;6.22;1.70;;;;;;;;;;5066762;28;20530;-58
2023/04/25 07:50:53;;;;;;;5.53;1.50;;;;;;;;;;5063940;28;20053;-58
2023/04/25 07:53:20;;;;;;;6.57;1.25;;;;;;;;;;5071649;28;20061;-58
2023/04/25 07:55:46;;;;;;;5.68;1.55;;;;;;;;;;5082531;28;20056;-58
2023/04/25 07:58:13;;;;;;;7.18;1.45;;;;;;;;;;5064943;28;20075;-56
2023/04/25 08:00:41;;;;;;;4.43;1.35;;;;;;;;;;5065228;28;20064;-58
2023/04/25 08:03:09;;;;;;;8.13;1.48;;;;;;;;;;5072477;28;20065;-57
2023/04/25 08:05:36;;;;;;;11.00;1.80;;;;;;;;;;5076599;28;20058;-56
2023/04/25 08:08:02;;;;;;;8.07;1.65;;;;;;;;;;5064077;28;20111;-58
2023/04/25 08:10:28;;;;;;;8.82;1.83;;;;;;;;;;5064243;28;20075;-58
2023/04/25 08:12:55;;;;;;;4.57;1.63;;;;;;;;;;5065326;28;20554;-57
2023/04/25 08:15:21;;;;;;;7.60;1.23;;;;;;;;;;5069753;28;20056;-57
2023/04/25 08:17:48;;;;;;;5.78;1.98;;;;;;;;;;5061803;28;20681;-57
2023/04/25 08:20:14;;;;;;;5.38;1.10;;;;;;;;;;5063786;28;20544;-54
2023/04/25 08:22:41;;;;;;;3.78;1.17;;;;;;;;;;5062732;28;21835;-57
2023/04/25 08:25:08;;;;;;;5.32;1.40;;;;;;;;;;5063876;28;20503;-58
2023/04/25 08:27:35;;;;;;;4.13;1.05;;;;;;;;;;5063786;28;20151;-57
2023/04/25 08:30:03;;;;;;;6.30;1.50;;;;;;;;;;5063877;28;20558;-58
2023/04/25 08:32:29;;;;;;;4.82;1.15;;;;;;;;;;5075491;28;20118;-55
2023/04/25 08:34:56;;;;;;;4.43;0.88;;;;;;;;;;5065706;28;20080;-59
2023/04/25 08:37:23;;;;;;;7.57;1.38;;;;;;;;;;5063830;28;20111;-57
2023/04/25 08:39:52;;;;;;;2.40;0.90;;;;;;;;;;5065764;28;20052;-57
2023/04/25 08:42:19;;;;;;;5.50;1.63;;;;;;;;;;5064193;28;20506;-56
2023/04/25 08:44:46;;;;;;;7.63;1.35;;;;;;;;;;5063955;28;20049;-59
2023/04/25 08:47:12;;;;;;;8.63;2.30;;;;;;;;;;5069230;28;20053;-57
2023/04/25 08:49:39;;;;;;;3.17;0.80;;;;;;;;;;5076072;28;20134;-57
2023/04/25 08:52:07;;;;;;;8.20;1.58;;;;;;;;;;5071497;28;20498;-59
2023/04/25 08:54:34;;;;;;;8.55;1.30;;;;;;;;;;5069015;28;20132;-59
2023/04/25 08:57:03;;;;;;;8.32;2.03;;;;;;;;;;5062207;28;20056;-58
2023/04/25 08:59:31;;;;;;;10.70;1.92;;;;;;;;;;5061923;28;20571;-59
2023/04/25 09:01:57;;;;;;;5.53;1.13;;;;;;;;;;5067472;28;20140;-58
2023/04/25 09:04:24;;;;;;;3.00;0.77;;;;;;;;;;5062627;28;20045;-58
2023/04/25 09:06:50;;;;;;;5.63;1.80;;;;;;;;;;5063654;28;20065;-58
2023/04/25 09:09:17;;;;;;;6.00;1.70;;;;;;;;;;5062114;28;20084;-57
2023/04/25 09:11:44;;;;;;;5.40;1.52;;;;;;;;;;5062378;28;20053;-58
2023/04/25 09:14:11;;;;;;;8.38;1.25;;;;;;;;;;5069927;28;20052;-56
2023/04/25 09:16:56;;;;;;;11.60;1.95;;;;;;;;;;5062166;28;20049;-58
2023/04/25 09:19:24;;;;;;;5.25;1.23;;;;;;;;;;5064312;28;20133;-58
2023/04/25 09:22:05;;;;;;;12.65;1.95;;;;;;;;;;5061320;28;20426;-58
2023/04/25 09:24:37;;;;;;;4.53;1.35;;;;;;;;;;5065514;28;20115;-57
2023/04/25 09:27:04;;;;;;;2.65;1.13;;;;;;;;;;5062014;28;20060;-56
2023/04/25 09:29:31;;;;;;;3.05;0.85;;;;;;;;;;5080236;28;20063;-58
2023/04/25 09:32:16;;;;;;;5.93;1.88;;;;;;;;;;5074068;28;20056;-56
2023/04/25 09:34:44;;;;;;;9.73;1.65;;;;;;;;;;5062877;28;20080;-58
2023/04/25 09:37:11;;;;;;;5.47;1.50;;;;;;;;;;5060444;28;20144;-58
2023/04/25 09:39:38;;;;;;;4.00;0.90;;;;;;;;;;5072433;28;20054;-56
2023/04/25 09:42:05;;;;;;;6.22;1.38;;;;;;;;;;5064267;28;20053;-58
2023/04/25 09:44:31;;;;;;;8.02;1.20;;;;;;;;;;5062217;28;20053;-55
2023/04/25 09:46:58;;;;;;;2.38;0.95;;;;;;;;;;5071159;28;20133;-56
2023/04/25 09:49:26;;;;;;;4.88;1.67;;;;;;;;;;5083889;28;20059;-59
2023/04/25 09:51:57;;;;;;;4.28;0.90;;;;;;;;;;5075371;28;20388;-56
2023/04/25 09:54:23;;;;;;;3.20;0.80;;;;;;;;;;5071381;28;20587;-58
2023/04/25 09:56:51;;;;;;;4.85;1.20;;;;;;;;;;5057609;28;20045;-59
2023/04/25 09:59:19;;;;;;;4.20;0.80;;;;;;;;;;5066789;28;20118;-59
2023/04/25 10:01:47;;;;;;;4.47;1.10;;;;;;;;;;5072525;28;20071;-58
2023/04/25 10:04:14;;;;;;;8.93;1.50;;;;;;;;;;5058464;28;20092;-58
2023/04/25 10:06:42;;;;;;;5.93;1.17;;;;;;;;;;5060903;28;20345;-59
2023/04/25 10:09:10;;;;;;;3.90;0.93;;;;;;;;;;5061683;28;20084;-58
2023/04/25 10:11:36;;;;;;;4.85;1.30;;;;;;;;;;5062276;28;20053;-58
2023/04/25 10:14:02;;;;;;;3.85;1.13;;;;;;;;;;5061184;28;20057;-58
2023/04/25 10:16:30;;;;;;;5.93;0.90;;;;;;;;;;5062097;28;20151;-58
2023/04/25 10:18:57;;;;;;;4.40;0.90;;;;;;;;;;5061600;28;20059;-58
2023/04/25 10:21:24;;;;;;;4.07;0.77;;;;;;;;;;5061798;28;20064;-58
2023/04/25 10:23:51;;;;;;;5.68;1.83;;;;;;;;;;5059976;28;20455;-59
2023/04/25 10:26:18;;;;;;;5.25;1.48;;;;;;;;;;5062575;28;20064;-59
2023/04/25 10:29:00;;;;;;;3.85;1.08;;;;;;;;;;5072247;28;20395;-58
2023/04/25 10:31:27;;;;;;;4.53;1.60;;;;;;;;;;5075279;28;20049;-58
2023/04/25 10:33:54;;;;;;;6.22;1.17;;;;;;;;;;5062313;28;20801;-58
2023/04/25 10:36:22;;;;;;;3.95;0.88;;;;;;;;;;5064856;28;20061;-58
2023/04/25 10:38:52;;;;;;;9.30;1.00;;;;;;;;;;5062477;28;20111;-57
2023/04/25 10:41:19;;;;;;;5.57;1.17;;;;;;;;;;5063984;28;20056;-57
2023/04/25 10:43:46;;;;;;;3.40;0.90;;;;;;;;;;5059174;28;20211;-55
2023/04/25 10:46:16;;;;;;;3.95;1.00;;;;;;;;;;5062473;28;20160;-56
2023/04/25 10:48:48;;;;;;;6.97;1.17;;;;;;;;;;5062375;28;20401;-58
2023/04/25 10:51:17;;;;;;;3.72;1.17;;;;;;;;;;5061866;28;20140;-58
2023/04/25 10:53:47;;;;;;;4.38;0.85;;;;;;;;;;5062004;28;20095;-56
2023/04/25 10:56:18;;;;;;;3.20;1.15;;;;;;;;;;5061397;28;20111;-56
2023/04/25 10:58:45;;;;;;;3.50;1.13;;;;;;;;;;5068666;28;20080;-56
2023/04/25 11:01:19;;;;;;;3.67;1.10;;;;;;;;;;5060418;28;20516;-57
2023/04/25 11:03:50;;;;;;;10.63;1.23;;;;;;;;;;5073618;28;20045;-58
2023/04/25 11:06:27;;;;;;;6.45;1.42;;;;;;;;;;5074304;28;20056;-58
2023/04/25 11:08:54;;;;;;;5.90;1.23;;;;;;;;;;5086021;28;20080;-60
2023/04/25 11:11:20;;;;;;;5.10;1.55;;;;;;;;;;5083659;28;20056;-59
2023/04/25 11:13:50;;;;;;;5.15;1.83;;;;;;;;;;5079252;28;20615;-56
2023/04/25 11:16:17;;;;;;;4.82;1.30;;;;;;;;;;5074761;28;20075;-57
2023/04/25 11:18:48;;;;;;;7.82;1.67;;;;;;;;;;5067823;28;20566;-58
2023/04/25 11:21:15;;;;;;;5.80;1.85;;;;;;;;;;5065816;28;20119;-57
2023/04/25 11:23:45;;;;;;;7.32;1.92;;;;;;;;;;5061130;28;20111;-59
2023/04/25 11:26:13;;;;;;;6.70;1.33;;;;;;;;;;5064159;28;20057;-59
2023/04/25 11:28:39;;;;;;;7.45;1.20;;;;;;;;;;5065360;28;20575;-58
2023/04/25 11:31:06;;;;;;;6.55;1.30;;;;;;;;;;5064099;28;20427;-59
2023/04/25 11:33:32;;;;;;;3.15;1.00;;;;;;;;;;5060454;28;20063;-57
2023/04/25 11:35:59;;;;;;;3.42;1.75;;;;;;;;;;5069608;28;20052;-57
2023/04/25 11:38:26;;;;;;;10.40;1.95;;;;;;;;;;5064835;28;20543;-58
2023/04/25 11:40:55;;;;;;;4.40;1.60;;;;;;;;;;5069729;28;20053;-59
2023/04/25 11:43:22;;;;;;;1.63;1.02;;;;;;;;;;5064855;28;20087;-59
2023/04/25 11:45:52;;;;;;;4.65;1.55;;;;;;;;;;5062081;28;20587;-59
2023/04/25 11:48:18;;;;;;;7.22;1.60;;;;;;;;;;5067696;28;20063;-58
2023/04/25 11:50:51;;;;;;;8.95;1.65;;;;;;;;;;5064715;28;20069;-59
2023/04/25 11:53:18;;;;;;;3.70;1.30;;;;;;;;;;5057661;28;20104;-57
2023/04/25 11:55:45;;;;;;;2.28;1.17;;;;;;;;;;5049377;28;20539;-58
2023/04/25 11:58:13;;;;;;;5.80;1.23;;;;;;;;;;5059946;28;20057;-59
2023/04/25 12:00:41;;;;;;;4.65;1.25;;;;;;;;;;5046829;28;20571;-59
2023/04/25 12:03:17;;;;;;;7.85;2.83;;;;;;;;;;5051657;28;20529;-59
2023/04/25 12:05:44;;;;;;;2.75;1.08;;;;;;;;;;5045876;28;20072;-59
2023/04/25 12:08:12;;;;;;;3.45;0.90;;;;;;;;;;5066516;28;20115;-59
2023/04/25 12:10:39;;;;;;;4.10;1.45;;;;;;;;;;5074679;28;20534;-58
2023/04/25 12:13:20;;;;;;;7.18;1.30;;;;;;;;;;5083180;28;20501;-59
2023/04/25 12:15:46;;;;;;;6.30;1.40;;;;;;;;;;5072806;28;20066;-59
2023/04/25 12:18:12;;;;;;;1.73;0.90;;;;;;;;;;5072176;28;20071;-59
2023/04/25 12:20:39;;;;;;;2.63;1.23;;;;;;;;;;5080453;28;20053;-58
2023/04/25 12:23:07;;;;;;;5.30;0.85;;;;;;;;;;5053272;28;20516;-57
2023/04/25 12:25:41;;;;;;;5.38;1.33;;;;;;;;;;5069589;28;20133;-58
2023/04/25 12:28:21;;;;;;;5.57;0.95;;;;;;;;;;5063028;28;20053;-58
2023/04/25 12:31:01;;;;;;;6.40;1.20;;;;;;;;;;5049551;28;20084;-56
2023/04/25 12:33:29;;;;;;;4.07;1.10;;;;;;;;;;5072007;28;20048;-34
2023/04/25 12:35:55;;;;;;;3.95;1.10;;;;;;;;;;5061406;28;20057;-58
2023/04/25 12:38:25;;;;;;;2.83;1.00;;;;;;;;;;5068050;28;20131;-59
2023/04/25 12:40:51;;;;;;;9.52;1.60;;;;;;;;;;5066834;28;20576;-54
2023/04/25 12:43:18;;;;;;;6.07;1.50;;;;;;;;;;5064136;28;20495;-53
2023/04/25 12:45:47;;;;;;;4.32;1.00;;;;;;;;;;5064087;28;20049;-56
2023/04/25 12:48:13;;;;;;;3.33;1.00;;;;;;;;;;5072918;28;20490;-57
2023/04/25 12:50:40;;;;;;;6.35;0.80;;;;;;;;;;5084188;28;20052;-59
2023/04/25 12:53:07;;;;;;;3.00;1.15;;;;;;;;;;5084006;28;20056;-57
2023/04/25 12:55:33;;;;;;;6.00;1.35;;;;;;;;;;5080703;28;20527;-59
2023/04/25 12:58:00;;;;;;;3.85;1.60;;;;;;;;;;5066145;28;20478;-58
2023/04/25 13:00:26;;;;;;;3.22;0.90;;;;;;;;;;5084479;28;20057;-58
2023/04/25 13:02:53;;;;;;;3.40;0.82;;;;;;;;;;5082068;28;20179;-56
2023/04/25 13:05:20;;;;;;;2.10;1.00;;;;;;;;;;5081120;28;20434;-57
2023/04/25 13:07:46;;;;;;;3.65;1.05;;;;;;;;;;5066195;28;20060;-58
2023/04/25 13:10:12;;;;;;;5.05;1.02;;;;;;;;;;5071885;28;20541;-58
2023/04/25 13:12:39;;;;;;;4.53;1.23;;;;;;;;;;5076142;28;20506;-56
2023/04/25 13:15:06;;;;;;;3.90;1.00;;;;;;;;;;5052275;28;20053;-58
2023/04/25 13:17:33;;;;;;;6.03;1.02;;;;;;;;;;5063190;28;20045;-59
2023/04/25 13:19:59;;;;;;;7.75;2.40;;;;;;;;;;5063397;28;20092;-57
2023/04/25 13:22:25;;;;;;;5.55;2.13;;;;;;;;;;5072733;28;20561;-58
2023/04/25 13:24:52;;;;;;;2.50;0.80;;;;;;;;;;5082291;28;20059;-58
2023/04/25 13:27:18;;;;;;;4.88;1.10;;;;;;;;;;5067528;28;20093;-59
2023/04/25 13:29:45;;;;;;;3.38;0.90;;;;;;;;;;5061888;28;20049;-57
2023/04/25 13:32:11;;;;;;;5.18;1.00;;;;;;;;;;5081291;28;20179;-56
2023/04/25 13:34:38;;;;;;;3.15;1.00;;;;;;;;;;5069287;28;20057;-57
2023/04/25 13:37:04;;;;;;;7.18;0.98;;;;;;;;;;5063459;28;20099;-57
2023/04/25 13:39:31;;;;;;;2.20;1.02;;;;;;;;;;5063182;28;20061;-57
2023/04/25 13:41:57;;;;;;;4.50;1.05;;;;;;;;;;5054640;28;20057;-59
2023/04/25 13:44:24;;;;;;;5.25;1.67;;;;;;;;;;5063146;28;20060;-59
2023/04/25 13:46:50;;;;;;;3.90;1.02;;;;;;;;;;5069597;28;20055;-60
2023/04/25 13:49:17;;;;;;;3.28;1.00;;;;;;;;;;5081987;28;20052;-59
2023/04/25 13:51:44;;;;;;;9.63;1.10;;;;;;;;;;5083719;28;20388;-57
2023/04/25 13:54:11;;;;;;;7.38;1.35;;;;;;;;;;5083354;28;20055;-57
2023/04/25 13:56:37;;;;;;;4.25;1.50;;;;;;;;;;5063742;28;20053;-58
2023/04/25 13:59:03;;;;;;;5.68;1.48;;;;;;;;;;5062909;28;20579;-57
2023/04/25 14:01:33;;;;;;;3.72;1.10;;;;;;;;;;5063126;28;20084;-56
2023/04/25 14:04:00;;;;;;;3.28;1.08;;;;;;;;;;5063444;28;20144;-58
2023/04/25 14:06:27;;;;;;;3.50;1.02;;;;;;;;;;5062913;28;20063;-57
2023/04/25 14:08:53;;;;;;;4.75;1.38;;;;;;;;;;5066305;28;20052;-58
2023/04/25 14:11:20;;;;;;;7.60;1.17;;;;;;;;;;5075550;28;20053;-57
2023/04/25 14:13:47;;;;;;;3.13;1.00;;;;;;;;;;5062746;28;20122;-57
2023/04/25 14:16:15;;;;;;;4.57;1.15;;;;;;;;;;5061751;28;20049;-58
2023/04/25 14:18:42;;;;;;;3.83;1.10;;;;;;;;;;5082259;28;20513;-57
2023/04/25 14:21:09;;;;;;;2.72;1.13;;;;;;;;;;5082442;28;20052;-56
2023/04/25 14:23:35;;;;;;;6.20;1.48;;;;;;;;;;5078662;28;20604;-58
2023/04/25 14:26:01;;;;;;;5.15;1.10;;;;;;;;;;5073855;28;20148;-57
2023/04/25 14:28:28;;;;;;;3.85;1.30;;;;;;;;;;5069591;28;20712;-59
2023/04/25 14:30:55;;;;;;;2.75;0.80;;;;;;;;;;5043246;28;20053;-58
2023/04/25 14:33:21;;;;;;;2.50;0.98;;;;;;;;;;5056074;28;20135;-58
2023/04/25 14:35:48;;;;;;;5.43;1.08;;;;;;;;;;5062143;28;20513;-57
2023/04/25 14:38:14;;;;;;;6.47;1.17;;;;;;;;;;5060535;28;21995;-58